Time;durP1;ratioP1;P1;durP2;ratioP2;P2;SDS_P1;SDS_P2;PMS_P1;PMS_P2;Temp;Humidity;BMP_temperature;BMP_pressure;BME280_temperature;BME280_humidity;BME280_pressure;Samples;Min_cycle;Max_cycle;Signal;HPM_P1;HPM_P2
2024/01/06 00:00:01;;;;;;;20.48;13.63;;;2.10;99.90;;;;;;5019391;28;20050;-80
2024/01/06 00:02:27;;;;;;;20.63;14.15;;;2.10;99.90;;;;;;5020778;28;20054;-79
2024/01/06 00:04:52;;;;;;;19.60;13.43;;;2.00;99.90;;;;;;5023274;28;20049;-80
2024/01/06 00:07:18;;;;;;;18.90;13.40;;;2.00;99.90;;;;;;5005422;28;20041;-80
2024/01/06 00:09:44;;;;;;;20.35;13.35;;;2.00;99.90;;;;;;5020422;28;20099;-80
2024/01/06 00:12:10;;;;;;;19.75;13.75;;;2.20;99.90;;;;;;5019781;28;20444;-80
2024/01/06 00:14:35;;;;;;;21.90;13.13;;;3.00;99.90;;;;;;5002511;28;20050;-80
2024/01/06 00:17:10;;;;;;;21.17;13.63;;;2.00;99.90;;;;;;5005306;28;20064;-79
2024/01/06 00:19:35;;;;;;;20.45;13.30;;;1.90;99.90;;;;;;5005404;28;20038;-80
2024/01/06 00:22:01;;;;;;;22.33;14.00;;;1.90;99.90;;;;;;5019859;28;20507;-79
2024/01/06 00:24:27;;;;;;;21.20;14.27;;;3.10;99.90;;;;;;5019779;28;20054;-80
2024/01/06 00:26:53;;;;;;;21.35;13.55;;;1.90;99.90;;;;;;5002631;28;20064;-79
2024/01/06 00:29:18;;;;;;;20.02;13.18;;;1.90;99.90;;;;;;5031167;28;20053;-80
2024/01/06 00:31:44;;;;;;;22.08;13.95;;;3.20;99.90;;;;;;5004639;28;20085;-82
2024/01/06 00:34:09;;;;;;;19.42;13.35;;;1.80;99.90;;;;;;5020484;28;20415;-81
2024/01/06 00:36:35;;;;;;;21.30;14.02;;;2.60;99.90;;;;;;5019595;28;20044;-79
2024/01/06 00:39:01;;;;;;;19.33;13.32;;;1.90;99.90;;;;;;5002165;28;20045;-79
2024/01/06 00:41:26;;;;;;;21.70;13.20;;;3.00;99.90;;;;;;5022433;28;20041;-80
2024/01/06 00:43:52;;;;;;;22.70;13.45;;;1.80;99.90;;;;;;5022583;28;20049;-79
2024/01/06 00:46:18;;;;;;;22.60;13.32;;;2.40;99.90;;;;;;5004544;28;20049;-80
2024/01/06 00:48:43;;;;;;;22.10;13.70;;;1.80;99.90;;;;;;5004702;28;20049;-80
2024/01/06 00:51:09;;;;;;;18.92;12.40;;;1.70;99.90;;;;;;5004934;28;20096;-80
2024/01/06 00:53:34;;;;;;;17.67;12.52;;;1.80;99.90;;;;;;5019476;28;20116;-80
2024/01/06 00:56:00;;;;;;;21.88;13.02;;;1.80;99.90;;;;;;5025697;28;20407;-79
2024/01/06 00:58:26;;;;;;;19.45;12.90;;;1.90;99.90;;;;;;5021876;28;20038;-80
2024/01/06 01:00:52;;;;;;;24.33;13.68;;;1.80;99.90;;;;;;5022366;28;20053;-80
2024/01/06 01:03:17;;;;;;;23.63;14.00;;;1.80;99.90;;;;;;5005935;28;20057;-80
2024/01/06 01:05:43;;;;;;;20.02;13.70;;;1.90;99.90;;;;;;5021881;28;20128;-80
2024/01/06 01:08:08;;;;;;;20.58;12.68;;;2.70;99.90;;;;;;5022048;28;20087;-80
2024/01/06 01:10:36;;;;;;;21.55;13.45;;;1.90;99.90;;;;;;5020936;28;20144;-82
2024/01/06 01:13:02;;;;;;;23.58;14.32;;;2.50;99.90;;;;;;5018837;28;20508;-79
2024/01/06 01:15:28;;;;;;;20.17;11.85;;;1.80;99.90;;;;;;5020091;28;20045;-80
2024/01/06 01:17:53;;;;;;;17.65;12.07;;;1.80;99.90;;;;;;5027735;28;20037;-79
2024/01/06 01:20:19;;;;;;;23.52;13.77;;;1.70;99.90;;;;;;4983195;28;20061;-80
2024/01/06 01:22:45;;;;;;;18.10;12.55;;;1.80;99.90;;;;;;5018747;28;20041;-79
2024/01/06 01:25:12;;;;;;;23.83;14.63;;;1.80;99.90;;;;;;5021807;28;20456;-80
2024/01/06 01:27:40;;;;;;;21.77;14.13;;;1.70;99.90;;;;;;5003925;28;20416;-80
2024/01/06 01:30:06;;;;;;;23.17;14.23;;;2.50;99.90;;;;;;4985815;28;20511;-80
2024/01/06 01:32:35;;;;;;;20.67;13.15;;;1.70;99.90;;;;;;5019486;28;20420;-80
2024/01/06 01:35:00;;;;;;;18.20;11.88;;;1.70;99.90;;;;;;5019211;28;20049;-80
2024/01/06 01:37:26;;;;;;;18.05;11.77;;;1.70;99.90;;;;;;5005206;28;20041;-82
2024/01/06 01:39:52;;;;;;;19.30;12.30;;;2.10;99.90;;;;;;5023197;28;20101;-81
2024/01/06 01:42:17;;;;;;;22.00;13.52;;;1.60;99.90;;;;;;5002514;28;20054;-80
2024/01/06 01:44:44;;;;;;;22.00;14.07;;;1.70;99.90;;;;;;5029513;28;20029;-84
2024/01/06 01:47:09;;;;;;;21.45;15.13;;;1.70;99.90;;;;;;5002911;28;20057;-79
2024/01/06 01:49:35;;;;;;;19.58;12.93;;;1.70;99.90;;;;;;5018709;28;20045;-84
2024/01/06 01:52:01;;;;;;;21.35;13.40;;;1.60;99.90;;;;;;5018502;28;20038;-80
2024/01/06 01:54:27;;;;;;;21.85;12.45;;;1.70;99.90;;;;;;5003294;28;20053;-85
2024/01/06 01:56:53;;;;;;;23.45;13.73;;;1.60;99.90;;;;;;5003934;28;20416;-81
2024/01/06 01:59:19;;;;;;;25.13;14.10;;;1.90;99.90;;;;;;4995136;28;20058;-79
2024/01/06 02:01:46;;;;;;;24.73;15.07;;;1.60;99.90;;;;;;5000763;28;20104;-83
2024/01/06 02:04:12;;;;;;;23.52;14.45;;;1.70;99.90;;;;;;5018588;28;20113;-81
2024/01/06 02:06:38;;;;;;;24.58;14.35;;;1.50;99.90;;;;;;5002132;28;20050;-80
2024/01/06 02:09:03;;;;;;;27.60;14.50;;;1.60;99.90;;;;;;5021319;28;20349;-83
2024/01/06 02:11:29;;;;;;;20.70;13.15;;;1.60;99.90;;;;;;5003166;28;20121;-80
2024/01/06 02:13:55;;;;;;;21.25;11.82;;;1.50;99.90;;;;;;5021313;28;20139;-80
2024/01/06 02:16:20;;;;;;;18.83;11.95;;;2.20;99.90;;;;;;5023224;28;20045;-79
2024/01/06 02:18:46;;;;;;;16.85;10.82;;;1.50;99.90;;;;;;5001794;28;20041;-80
2024/01/06 02:21:14;;;;;;;19.05;11.82;;;2.10;99.90;;;;;;5022952;28;20120;-83
2024/01/06 02:23:40;;;;;;;17.85;10.93;;;2.60;99.90;;;;;;4986668;28;20089;-80
2024/01/06 02:26:05;;;;;;;16.80;10.98;;;1.50;99.90;;;;;;5003395;28;20534;-83
2024/01/06 02:28:31;;;;;;;17.58;10.38;;;1.50;99.90;;;;;;5003306;28;20090;-80
2024/01/06 02:30:57;;;;;;;17.58;11.07;;;1.50;99.90;;;;;;5001958;28;20073;-81
2024/01/06 02:33:24;;;;;;;21.70;11.57;;;1.40;99.90;;;;;;5020616;28;20046;-80
2024/01/06 02:35:49;;;;;;;18.30;11.65;;;1.40;99.90;;;;;;5003971;28;20057;-80
2024/01/06 02:38:15;;;;;;;19.10;11.77;;;1.30;99.90;;;;;;4990149;28;20041;-80
2024/01/06 02:40:42;;;;;;;17.15;11.10;;;1.40;99.90;;;;;;5024352;28;20378;-78
2024/01/06 02:43:08;;;;;;;18.98;11.88;;;1.30;99.90;;;;;;5022701;28;20046;-78
2024/01/06 02:45:34;;;;;;;19.58;10.75;;;1.30;99.90;;;;;;5024448;28;20045;-80
2024/01/06 02:48:00;;;;;;;17.70;11.00;;;1.30;99.90;;;;;;5027859;28;20485;-81
2024/01/06 02:50:25;;;;;;;17.27;10.43;;;1.20;99.90;;;;;;5024741;28;20046;-79
2024/01/06 02:52:51;;;;;;;20.15;11.10;;;1.30;99.90;;;;;;5024531;28;20059;-79
2024/01/06 02:55:16;;;;;;;19.98;11.55;;;1.20;99.90;;;;;;5023230;28;20439;-79
2024/01/06 02:57:42;;;;;;;20.20;10.80;;;1.20;99.90;;;;;;5021238;28;20636;-80
2024/01/06 03:00:09;;;;;;;19.23;11.20;;;1.20;99.90;;;;;;5021047;28;20056;-80
2024/01/06 03:02:36;;;;;;;20.75;11.07;;;1.20;99.90;;;;;;5005306;28;20064;-79
2024/01/06 03:05:02;;;;;;;17.77;10.80;;;1.20;99.90;;;;;;5023896;28;20050;-80
2024/01/06 03:07:28;;;;;;;17.20;10.95;;;2.60;99.90;;;;;;5005730;28;20077;-80
2024/01/06 03:09:53;;;;;;;19.52;10.88;;;1.20;99.90;;;;;;5021163;28;20065;-79
2024/01/06 03:12:19;;;;;;;18.27;10.05;;;1.20;99.90;;;;;;5027298;28;20038;-80
2024/01/06 03:14:44;;;;;;;16.35;10.32;;;1.80;99.90;;;;;;5023764;28;20057;-79
2024/01/06 03:17:10;;;;;;;18.58;10.60;;;1.10;99.90;;;;;;5006060;28;20080;-83
2024/01/06 03:19:36;;;;;;;17.17;9.98;;;2.20;99.90;;;;;;5005631;28;20057;-79
2024/01/06 03:22:02;;;;;;;16.92;9.93;;;1.10;99.90;;;;;;5020552;28;20234;-79
2024/01/06 03:24:28;;;;;;;19.65;10.80;;;1.10;99.90;;;;;;5020526;28;20100;-80
2024/01/06 03:26:53;;;;;;;18.02;10.55;;;1.10;99.90;;;;;;5021335;28;20084;-80
2024/01/06 03:29:19;;;;;;;17.58;10.50;;;2.10;99.90;;;;;;5005514;28;20092;-80
2024/01/06 03:31:45;;;;;;;18.88;10.25;;;2.40;99.90;;;;;;5023460;28;20042;-80
2024/01/06 03:34:11;;;;;;;17.45;10.93;;;1.10;99.90;;;;;;4999834;28;20057;-81
2024/01/06 03:36:38;;;;;;;17.95;10.48;;;1.10;99.90;;;;;;5004231;28;20703;-79
2024/01/06 03:39:04;;;;;;;21.40;11.55;;;1.10;99.90;;;;;;5003813;28;20068;-80
2024/01/06 03:41:30;;;;;;;20.40;11.48;;;1.10;99.90;;;;;;5005142;28;20050;-80
2024/01/06 03:43:55;;;;;;;19.90;11.48;;;1.10;99.90;;;;;;5019102;28;20034;-80
2024/01/06 03:46:22;;;;;;;23.65;11.95;;;1.00;99.90;;;;;;5003941;28;20504;-81
2024/01/06 03:48:47;;;;;;;21.65;12.70;;;1.10;99.90;;;;;;4987866;28;20553;-80
2024/01/06 03:51:13;;;;;;;21.67;11.50;;;1.10;99.90;;;;;;5005133;28;20095;-80
2024/01/06 03:53:40;;;;;;;25.80;12.07;;;1.10;99.90;;;;;;5005652;28;20092;-79
2024/01/06 03:56:06;;;;;;;26.65;12.20;;;1.10;99.90;;;;;;5003896;28;20041;-80
2024/01/06 03:58:32;;;;;;;19.50;11.82;;;1.10;99.90;;;;;;5001780;28;20042;-83
2024/01/06 04:00:58;;;;;;;20.65;13.20;;;1.00;99.90;;;;;;5008986;28;20057;-80
2024/01/06 04:03:23;;;;;;;26.60;13.48;;;1.00;99.90;;;;;;5025265;28;20046;-80
2024/01/06 04:05:49;;;;;;;23.42;13.40;;;1.10;99.90;;;;;;5007468;28;20412;-80
2024/01/06 04:08:14;;;;;;;21.08;12.70;;;1.10;99.90;;;;;;5011645;28;20136;-79
2024/01/06 04:10:41;;;;;;;22.08;13.75;;;1.10;99.90;;;;;;5023078;28;20484;-79
2024/01/06 04:13:07;;;;;;;23.45;12.75;;;1.10;99.90;;;;;;5005429;28;20041;-81
2024/01/06 04:15:33;;;;;;;25.65;13.93;;;2.40;99.90;;;;;;5019593;28;20076;-79
2024/01/06 04:18:02;;;;;;;27.13;14.00;;;1.10;99.90;;;;;;5025460;28;20571;-79
2024/01/06 04:20:28;;;;;;;23.73;13.50;;;1.10;99.90;;;;;;5005514;28;20089;-80
2024/01/06 04:22:54;;;;;;;23.85;13.77;;;1.10;99.90;;;;;;5005548;28;20630;-80
2024/01/06 04:25:19;;;;;;;19.80;12.88;;;2.50;99.90;;;;;;5013080;28;20132;-80
2024/01/06 04:27:46;;;;;;;19.65;13.30;;;1.20;99.90;;;;;;5004460;28;20049;-79
2024/01/06 04:30:13;;;;;;;23.17;12.82;;;1.10;99.90;;;;;;5030274;28;20186;-79
2024/01/06 04:32:39;;;;;;;21.77;13.63;;;1.10;99.90;;;;;;5010168;28;20037;-80
2024/01/06 04:35:05;;;;;;;21.92;12.70;;;1.00;99.90;;;;;;5030735;28;20135;-77
2024/01/06 04:37:30;;;;;;;23.48;12.73;;;1.10;99.90;;;;;;5013133;28;20120;-80
2024/01/06 04:39:56;;;;;;;21.65;11.98;;;2.00;99.90;;;;;;5001886;28;20467;-79
2024/01/06 04:42:22;;;;;;;22.20;12.05;;;1.10;99.90;;;;;;5019388;28;20284;-80
2024/01/06 04:44:49;;;;;;;23.13;12.45;;;2.20;99.90;;;;;;5030415;28;20128;-80
2024/01/06 04:47:14;;;;;;;22.77;12.77;;;1.00;99.90;;;;;;5020691;28;20057;-80
2024/01/06 04:49:40;;;;;;;20.58;12.43;;;1.00;99.90;;;;;;5012637;28;20051;-80
2024/01/06 04:52:06;;;;;;;22.90;13.20;;;1.00;99.90;;;;;;5020169;28;20048;-80
2024/01/06 04:54:31;;;;;;;20.70;13.10;;;1.00;99.90;;;;;;5001237;28;20374;-80
2024/01/06 04:56:58;;;;;;;23.35;13.13;;;1.00;99.90;;;;;;5001056;28;20041;-79
2024/01/06 04:59:24;;;;;;;21.35;12.63;;;1.10;99.90;;;;;;5011938;28;20054;-79
2024/01/06 05:01:51;;;;;;;20.65;11.95;;;1.10;99.90;;;;;;5022523;28;20053;-81
2024/01/06 05:04:17;;;;;;;19.50;12.20;;;2.20;99.90;;;;;;5024920;28;20045;-80
2024/01/06 05:06:45;;;;;;;22.13;12.40;;;1.00;99.90;;;;;;5029485;28;20535;-80
2024/01/06 05:09:11;;;;;;;22.17;12.25;;;2.00;99.90;;;;;;5003030;28;20053;-80
2024/01/06 05:11:37;;;;;;;22.08;13.27;;;2.60;99.90;;;;;;5010557;28;20045;-80
2024/01/06 05:14:02;;;;;;;22.67;12.85;;;1.10;99.90;;;;;;5010668;28;20167;-80
2024/01/06 05:16:28;;;;;;;21.42;12.48;;;1.20;99.90;;;;;;5021351;28;20042;-80
2024/01/06 05:18:54;;;;;;;21.63;12.02;;;1.20;99.90;;;;;;5006260;28;20854;-79
2024/01/06 05:21:20;;;;;;;21.02;12.65;;;1.10;99.90;;;;;;5018596;28;20444;-80
2024/01/06 05:23:46;;;;;;;24.90;12.88;;;2.60;99.90;;;;;;5021576;28;20043;-81
2024/01/06 05:26:13;;;;;;;20.48;11.90;;;1.20;99.90;;;;;;5006443;28;20681;-80
2024/01/06 05:28:41;;;;;;;22.88;13.00;;;2.50;99.90;;;;;;5028986;28;20442;-81
2024/01/06 05:31:07;;;;;;;19.83;11.80;;;2.00;99.90;;;;;;5012341;28;20166;-82
2024/01/06 05:33:32;;;;;;;18.63;11.80;;;2.40;99.90;;;;;;4995382;28;20053;-80
2024/01/06 05:35:58;;;;;;;19.30;11.98;;;1.10;99.90;;;;;;5029931;28;20087;-82
2024/01/06 05:38:24;;;;;;;22.73;12.50;;;1.10;99.90;;;;;;5030224;28;20088;-80
2024/01/06 05:40:49;;;;;;;21.80;11.48;;;2.40;99.90;;;;;;5002639;28;20073;-82
2024/01/06 05:43:15;;;;;;;19.00;11.80;;;1.20;99.90;;;;;;5005935;28;20412;-80
2024/01/06 05:45:46;;;;;;;17.60;11.20;;;1.10;99.90;;;;;;5021774;28;20042;-84
2024/01/06 05:48:12;;;;;;;17.33;11.10;;;2.10;99.90;;;;;;5009461;28;20094;-82
2024/01/06 05:50:39;;;;;;;24.92;12.38;;;1.20;99.90;;;;;;5004445;28;20091;-81
2024/01/06 05:53:05;;;;;;;18.25;11.52;;;1.20;99.90;;;;;;5008598;28;20054;-82
2024/01/06 05:55:31;;;;;;;16.70;11.07;;;1.20;99.90;;;;;;5005723;28;20067;-82
2024/01/06 05:58:04;;;;;;;17.90;10.75;;;1.20;99.90;;;;;;5007527;28;20507;-80
2024/01/06 06:00:31;;;;;;;17.85;11.23;;;1.90;99.90;;;;;;5025862;28;20069;-79
2024/01/06 06:02:57;;;;;;;16.88;10.88;;;1.20;99.90;;;;;;5021952;28;20053;-81
2024/01/06 06:05:23;;;;;;;16.30;9.98;;;1.20;99.90;;;;;;5028286;28;20053;-80
2024/01/06 06:07:48;;;;;;;18.70;11.02;;;1.20;99.90;;;;;;5022841;28;20058;-81
2024/01/06 06:10:16;;;;;;;15.32;10.52;;;1.10;99.90;;;;;;5024717;28;20368;-80
2024/01/06 06:12:41;;;;;;;17.20;10.30;;;1.20;99.90;;;;;;5004850;28;20058;-84
2024/01/06 06:15:07;;;;;;;14.52;9.77;;;1.20;99.90;;;;;;5004759;28;20046;-80
2024/01/06 06:17:33;;;;;;;16.70;10.38;;;1.20;99.90;;;;;;5029995;28;20184;-79
2024/01/06 06:19:59;;;;;;;16.92;10.25;;;1.10;99.90;;;;;;5033478;28;20874;-83
2024/01/06 06:22:30;;;;;;;17.08;10.45;;;1.20;99.90;;;;;;5015020;28;20061;-81
2024/01/06 06:24:59;;;;;;;17.23;11.75;;;1.20;99.90;;;;;;5033710;28;20350;-80
2024/01/06 06:27:26;;;;;;;17.98;11.45;;;1.80;99.90;;;;;;5022364;28;20428;-80
2024/01/06 06:29:52;;;;;;;18.52;11.70;;;1.20;99.90;;;;;;5033065;28;20414;-79
2024/01/06 06:32:18;;;;;;;16.60;11.10;;;1.20;99.90;;;;;;5014824;28;20053;-80
2024/01/06 06:34:44;;;;;;;19.05;11.20;;;1.20;99.90;;;;;;5025619;28;20056;-80
2024/01/06 06:37:09;;;;;;;15.27;10.95;;;1.20;99.90;;;;;;5032258;28;20107;-80
2024/01/06 06:39:36;;;;;;;21.00;12.25;;;1.20;99.90;;;;;;5015453;28;20095;-79
2024/01/06 06:42:02;;;;;;;17.38;11.15;;;1.30;99.90;;;;;;5004128;28;20088;-82
2024/01/06 06:44:29;;;;;;;16.38;11.57;;;1.30;99.90;;;;;;5030116;28;20037;-80
2024/01/06 06:46:55;;;;;;;16.98;11.50;;;1.30;99.90;;;;;;5014281;28;20095;-80
2024/01/06 06:49:21;;;;;;;19.30;11.95;;;1.20;99.90;;;;;;5032903;28;20042;-80
2024/01/06 06:51:48;;;;;;;19.88;10.95;;;1.30;99.90;;;;;;5028724;28;20113;-80
2024/01/06 06:54:15;;;;;;;19.13;12.50;;;1.20;99.90;;;;;;5020961;28;20456;-79
2024/01/06 06:56:44;;;;;;;17.20;11.52;;;1.20;99.90;;;;;;5021465;28;20049;-81
2024/01/06 06:59:10;;;;;;;18.83;12.10;;;1.30;99.90;;;;;;5008415;28;20406;-81
2024/01/06 07:01:36;;;;;;;18.63;11.55;;;1.30;99.90;;;;;;5025559;28;20072;-80
2024/01/06 07:04:02;;;;;;;20.38;12.13;;;2.70;99.90;;;;;;5014404;28;20037;-81
2024/01/06 07:06:28;;;;;;;19.30;11.90;;;1.30;99.90;;;;;;5021102;28;20041;-80
2024/01/06 07:08:55;;;;;;;19.92;12.20;;;1.20;99.90;;;;;;5020866;28;20447;-80
2024/01/06 07:11:20;;;;;;;19.05;13.23;;;1.30;99.90;;;;;;5010954;28;20053;-79
2024/01/06 07:13:46;;;;;;;22.52;13.38;;;1.20;99.90;;;;;;5009789;28;20646;-79
2024/01/06 07:16:12;;;;;;;24.13;13.85;;;1.20;99.90;;;;;;5003150;28;20125;-80
2024/01/06 07:18:38;;;;;;;20.98;13.25;;;1.20;99.90;;;;;;5004796;28;20049;-80
2024/01/06 07:21:06;;;;;;;22.88;13.65;;;1.20;99.90;;;;;;5005762;28;20446;-80
2024/01/06 07:23:32;;;;;;;24.40;14.65;;;2.70;99.90;;;;;;5030374;28;20061;-79
2024/01/06 07:25:58;;;;;;;23.33;13.27;;;1.30;99.90;;;;;;5002336;28;20139;-79
2024/01/06 07:28:24;;;;;;;27.83;13.85;;;1.20;99.90;;;;;;5020422;28;20448;-79
2024/01/06 07:30:50;;;;;;;28.75;15.27;;;1.30;99.90;;;;;;5023387;28;20065;-80
2024/01/06 07:33:15;;;;;;;22.48;13.75;;;1.30;99.90;;;;;;5023305;28;20124;-80
2024/01/06 07:35:43;;;;;;;24.35;14.20;;;1.30;99.90;;;;;;5022525;28;20120;-80
2024/01/06 07:38:11;;;;;;;22.63;14.23;;;2.70;99.90;;;;;;5020408;28;20128;-79
2024/01/06 07:40:37;;;;;;;23.08;14.27;;;1.30;99.90;;;;;;5002414;28;20049;-80
2024/01/06 07:43:04;;;;;;;25.27;14.60;;;1.30;99.90;;;;;;5010539;28;20509;-81
2024/01/06 07:45:31;;;;;;;25.95;14.77;;;1.40;99.90;;;;;;5020384;28;20056;-79
2024/01/06 07:47:57;;;;;;;23.27;13.32;;;1.30;99.90;;;;;;5021647;28;20519;-80
2024/01/06 07:50:23;;;;;;;20.90;14.18;;;1.40;99.90;;;;;;5006165;28;20132;-80
2024/01/06 07:52:48;;;;;;;22.38;14.95;;;2.40;99.90;;;;;;5027548;28;20180;-81
2024/01/06 07:55:14;;;;;;;21.55;14.30;;;2.30;99.90;;;;;;5012054;28;20065;-80
2024/01/06 07:57:40;;;;;;;21.98;13.85;;;1.30;99.90;;;;;;4988074;28;20074;-80
2024/01/06 08:00:06;;;;;;;25.00;14.85;;;1.40;99.90;;;;;;5022723;28;20504;-80
2024/01/06 08:02:32;;;;;;;24.50;14.07;;;1.30;99.90;;;;;;5005207;28;20400;-80
2024/01/06 08:04:58;;;;;;;23.67;14.77;;;1.40;99.90;;;;;;5023072;28;20041;-81
2024/01/06 08:07:24;;;;;;;23.42;15.05;;;1.70;99.90;;;;;;5003253;28;20054;-80
2024/01/06 08:09:49;;;;;;;25.48;15.50;;;1.40;99.90;;;;;;5020019;28;20052;-79
2024/01/06 08:12:15;;;;;;;24.13;15.32;;;1.30;99.90;;;;;;5003172;28;20045;-80
2024/01/06 08:14:41;;;;;;;24.42;15.93;;;1.40;99.90;;;;;;5004699;28;20045;-81
2024/01/06 08:17:07;;;;;;;23.80;15.45;;;1.40;99.90;;;;;;5022937;28;20041;-81
2024/01/06 08:19:33;;;;;;;24.75;16.45;;;1.40;99.90;;;;;;4986386;28;20076;-80
2024/01/06 08:21:59;;;;;;;21.38;14.00;;;1.30;99.90;;;;;;5020144;28;20088;-81
2024/01/06 08:24:24;;;;;;;24.58;16.00;;;2.40;99.90;;;;;;5023704;28;20048;-81
2024/01/06 08:26:51;;;;;;;24.85;15.95;;;1.40;99.90;;;;;;5010141;28;20052;-79
2024/01/06 08:29:19;;;;;;;24.70;16.33;;;1.40;99.90;;;;;;5004977;28;20049;-80
2024/01/06 08:31:45;;;;;;;23.67;15.95;;;1.40;99.90;;;;;;5002639;28;20124;-81
2024/01/06 08:34:11;;;;;;;26.85;16.45;;;1.40;99.90;;;;;;5019777;28;20129;-81
2024/01/06 08:36:37;;;;;;;27.65;17.38;;;1.30;99.90;;;;;;5009289;28;20083;-80
2024/01/06 08:39:02;;;;;;;24.23;16.23;;;1.40;99.90;;;;;;5026177;28;20404;-81
2024/01/06 08:41:28;;;;;;;27.08;17.58;;;1.50;99.90;;;;;;5001830;28;20133;-81
2024/01/06 08:43:54;;;;;;;23.27;16.33;;;1.40;99.90;;;;;;5003319;28;20100;-80
2024/01/06 08:46:19;;;;;;;28.52;16.98;;;1.40;99.90;;;;;;5004163;28;20048;-82
2024/01/06 08:48:45;;;;;;;23.15;15.82;;;1.50;99.90;;;;;;5004390;28;20045;-80
2024/01/06 08:51:11;;;;;;;24.27;16.08;;;1.50;99.90;;;;;;5001538;28;20086;-81
2024/01/06 08:53:36;;;;;;;25.50;14.88;;;1.50;99.90;;;;;;5004848;28;20050;-80
2024/01/06 08:56:02;;;;;;;25.55;15.32;;;1.40;99.90;;;;;;5012417;28;20084;-85
2024/01/06 08:58:28;;;;;;;25.95;15.65;;;1.50;99.90;;;;;;5007054;28;20053;-80
2024/01/06 09:00:53;;;;;;;26.38;15.52;;;1.40;99.90;;;;;;5018271;28;20421;-80
2024/01/06 09:03:24;;;;;;;23.77;15.68;;;1.50;99.90;;;;;;5003824;28;20444;-81
2024/01/06 09:05:52;;;;;;;23.90;14.93;;;1.50;99.90;;;;;;5025412;28;20080;-82
2024/01/06 09:08:18;;;;;;;22.35;14.98;;;1.60;99.90;;;;;;5010363;28;20073;-85
2024/01/06 09:10:45;;;;;;;24.52;14.50;;;3.10;99.90;;;;;;5018882;28;20119;-83
2024/01/06 09:13:11;;;;;;;20.80;14.18;;;1.50;99.90;;;;;;5001450;28;20085;-84
2024/01/06 09:15:36;;;;;;;21.55;14.50;;;1.40;99.90;;;;;;4987955;28;20488;-84
2024/01/06 09:18:02;;;;;;;25.23;14.35;;;1.50;99.90;;;;;;5021342;28;20045;-84
2024/01/06 09:20:28;;;;;;;22.90;14.65;;;1.50;99.90;;;;;;5019911;28;20057;-83
2024/01/06 09:22:56;;;;;;;22.02;14.18;;;1.50;99.90;;;;;;5018705;28;20033;-83
2024/01/06 09:25:25;;;;;;;21.10;14.20;;;2.60;99.90;;;;;;5018524;28;20052;-83
2024/01/06 09:27:52;;;;;;;26.27;15.88;;;1.40;99.90;;;;;;5018352;28;20515;-83
2024/01/06 09:30:21;;;;;;;24.67;14.98;;;1.40;99.90;;;;;;5007823;28;20147;-83
2024/01/06 09:32:47;;;;;;;22.20;14.65;;;1.40;99.90;;;;;;5027315;28;20120;-85
2024/01/06 09:35:13;;;;;;;20.50;13.85;;;1.50;99.90;;;;;;5024394;28;20775;-83
2024/01/06 09:37:40;;;;;;;18.63;13.20;;;2.70;99.90;;;;;;5027577;28;20049;-84
2024/01/06 09:40:23;;;;;;;26.35;15.65;;;1.50;99.90;;;;;;4997581;28;20045;-84
2024/01/06 09:42:54;;;;;;;24.02;14.50;;;1.40;99.90;;;;;;5008089;28;20056;-85
2024/01/06 09:45:25;;;;;;;21.70;13.88;;;3.00;99.90;;;;;;5006850;28;20124;-84
2024/01/06 09:47:58;;;;;;;19.95;13.18;;;2.70;99.90;;;;;;5025657;28;20099;-87
2024/01/06 09:50:25;;;;;;;21.45;13.45;;;1.40;99.90;;;;;;5024858;28;20394;-87
2024/01/06 09:52:53;;;;;;;19.88;13.63;;;1.70;99.90;;;;;;5000834;28;20034;-84
2024/01/06 09:55:23;;;;;;;19.85;13.68;;;2.90;99.90;;;;;;5021642;28;20099;-83
2024/01/06 09:57:49;;;;;;;19.27;12.85;;;1.60;99.90;;;;;;5029737;28;20510;-84
2024/01/06 10:00:16;;;;;;;24.00;14.50;;;1.70;99.90;;;;;;5011008;28;20124;-85
2024/01/06 10:02:43;;;;;;;21.85;13.50;;;1.60;99.90;;;;;;4997608;28;20509;-83
2024/01/06 10:05:10;;;;;;;22.95;14.15;;;1.60;99.90;;;;;;5007998;28;20053;-82
2024/01/06 10:07:35;;;;;;;22.10;13.60;;;1.70;99.90;;;;;;5021155;28;20496;-83
2024/01/06 10:10:01;;;;;;;19.10;13.35;;;2.40;99.90;;;;;;5004504;28;20034;-85
2024/01/06 10:12:28;;;;;;;23.20;13.75;;;2.30;99.90;;;;;;5020647;28;20116;-84
2024/01/06 10:14:54;;;;;;;18.70;13.07;;;1.70;99.90;;;;;;5021465;28;20041;-84
2024/01/06 10:17:19;;;;;;;19.38;12.57;;;1.70;99.90;;;;;;5003000;28;20043;-83
2024/01/06 10:19:45;;;;;;;18.80;13.10;;;2.30;99.90;;;;;;5022600;28;20045;-85
2024/01/06 10:22:11;;;;;;;19.65;13.10;;;3.00;99.90;;;;;;5029151;28;20041;-84
2024/01/06 10:24:37;;;;;;;19.88;12.77;;;1.70;99.90;;;;;;5002905;28;20417;-84
2024/01/06 10:27:04;;;;;;;22.33;14.13;;;2.70;99.90;;;;;;5021164;28;20053;-85
2024/01/06 10:29:29;;;;;;;20.77;13.57;;;1.90;99.90;;;;;;5003056;28;20057;-83
2024/01/06 10:31:55;;;;;;;19.55;13.02;;;1.90;99.90;;;;;;5005053;28;20052;-83
2024/01/06 10:34:22;;;;;;;18.25;12.57;;;3.20;99.90;;;;;;5018427;28;20401;-86
2024/01/06 10:36:49;;;;;;;20.88;13.50;;;3.00;99.90;;;;;;5019774;28;20443;-85
2024/01/06 10:39:17;;;;;;;19.55;12.93;;;1.80;99.90;;;;;;5011084;28;20183;-84
2024/01/06 10:41:44;;;;;;;22.02;13.32;;;2.00;99.90;;;;;;5003840;28;20057;-83
2024/01/06 10:44:11;;;;;;;19.90;12.48;;;2.10;99.90;;;;;;5003720;28;20437;-84
2024/01/06 10:46:38;;;;;;;19.15;12.38;;;3.40;99.90;;;;;;5008369;28;20457;-83
2024/01/06 10:49:08;;;;;;;21.00;13.48;;;3.50;99.90;;;;;;5026886;28;20120;-82
2024/01/06 10:51:34;;;;;;;18.23;12.90;;;2.10;99.90;;;;;;5016284;28;20046;-84
2024/01/06 10:54:01;;;;;;;20.65;13.38;;;3.30;99.90;;;;;;5005203;28;20053;-83
2024/01/06 10:56:30;;;;;;;23.27;12.63;;;3.40;99.90;;;;;;5024552;28;20073;-84
2024/01/06 10:59:02;;;;;;;19.70;13.40;;;3.60;99.90;;;;;;5023844;28;20555;-83
2024/01/06 11:01:30;;;;;;;22.33;14.05;;;2.90;99.90;;;;;;4986801;28;20489;-83
2024/01/06 11:03:56;;;;;;;21.00;13.20;;;2.10;99.90;;;;;;5028718;28;20041;-83
2024/01/06 11:06:23;;;;;;;19.08;13.40;;;2.30;99.90;;;;;;5006507;28;20496;-83
2024/01/06 11:09:01;;;;;;;20.30;13.50;;;2.20;99.90;;;;;;5025491;28;20790;-84
2024/01/06 11:11:28;;;;;;;19.48;13.75;;;3.60;99.90;;;;;;5024136;28;20041;-84
2024/01/06 11:14:19;;;;;;;21.65;14.10;;;3.20;99.90;;;;;;5024086;28;20041;-84
2024/01/06 11:16:45;;;;;;;17.38;11.77;;;2.40;99.90;;;;;;5003341;28;20053;-84
2024/01/06 11:19:40;;;;;;;18.65;12.80;;;3.00;99.90;;;;;;5005278;28;20042;-84
2024/01/06 11:22:36;;;;;;;17.50;12.05;;;2.50;99.90;;;;;;5003132;28;20045;-83
2024/01/06 11:25:05;;;;;;;;;;;2.50;99.90;;;;;;5003052;28;20120;-84
2024/01/06 11:27:32;;;;;;;19.00;12.52;;;2.50;99.90;;;;;;5020843;28;19921;-84
2024/01/06 11:30:00;;;;;;;16.20;11.77;;;2.50;99.90;;;;;;5021314;28;20045;-84
2024/01/06 11:32:41;;;;;;;15.88;11.57;;;3.30;99.90;;;;;;5020627;28;20042;-84
2024/01/06 11:35:12;;;;;;;17.83;12.52;;;3.00;99.90;;;;;;5029399;28;20048;-84
2024/01/06 11:37:52;;;;;;;19.65;13.05;;;2.50;99.90;;;;;;5023808;28;20899;-84
2024/01/06 11:40:21;;;;;;;22.48;13.93;;;2.50;99.90;;;;;;5006241;28;20049;-85
2024/01/06 11:43:05;;;;;;;18.08;12.98;;;3.80;99.90;;;;;;4988557;28;20399;-83
2024/01/06 11:45:32;;;;;;;21.33;13.95;;;2.50;99.90;;;;;;5001259;28;20060;-84
2024/01/06 11:48:16;;;;;;;17.90;12.52;;;3.00;99.90;;;;;;5028587;28;20081;-84
2024/01/06 11:50:42;;;;;;;17.38;11.57;;;2.40;99.90;;;;;;5002318;28;20065;-83
2024/01/06 11:53:11;;;;;;;17.73;12.75;;;3.40;99.90;;;;;;5003109;28;20048;-84
2024/01/06 11:55:39;;;;;;;18.77;12.02;;;3.90;99.90;;;;;;5020481;28;20436;-85
2024/01/06 11:58:16;;;;;;;16.92;10.88;;;3.40;99.90;;;;;;5005191;28;20147;-84
2024/01/06 12:00:42;;;;;;;16.40;11.15;;;3.90;99.90;;;;;;5006005;28;20057;-83
2024/01/06 12:03:08;;;;;;;16.23;11.55;;;3.70;99.90;;;;;;5022676;28;20045;-83
2024/01/06 12:05:34;;;;;;;14.27;9.68;;;2.30;99.90;;;;;;5012982;28;20146;-83
2024/01/06 12:08:02;;;;;;;13.77;9.10;;;2.40;99.90;;;;;;5023264;28;20077;-83
2024/01/06 12:10:29;;;;;;;13.77;9.18;;;3.50;99.90;;;;;;5020114;28;20412;-83
2024/01/06 12:13:00;;;;;;;13.43;8.48;;;2.30;99.90;;;;;;5001798;28;20046;-83
2024/01/06 12:15:30;;;;;;;11.98;8.18;;;2.30;99.90;;;;;;5022099;28;20480;-83
2024/01/06 12:17:56;;;;;;;11.60;7.70;;;2.30;99.90;;;;;;5022983;28;20457;-82
2024/01/06 12:20:23;;;;;;;12.82;8.38;;;2.30;99.90;;;;;;5021860;28;20037;-84
2024/01/06 12:22:51;;;;;;;10.70;8.15;;;2.30;99.90;;;;;;5019503;28;20046;-83
2024/01/06 12:25:17;;;;;;;12.20;8.02;;;3.50;99.90;;;;;;5019481;28;20512;-83
2024/01/06 12:27:44;;;;;;;11.13;7.93;;;2.30;99.90;;;;;;5022015;28;20052;-83
2024/01/06 12:30:21;;;;;;;10.25;7.03;;;2.20;99.90;;;;;;5006323;28;20124;-81
2024/01/06 12:32:51;;;;;;;12.52;7.75;;;2.20;99.90;;;;;;5022053;28;20045;-81
2024/01/06 12:35:30;;;;;;;11.90;8.02;;;2.20;99.90;;;;;;4996683;28;20377;-82